createdAt,value
2019-01-09T00:01:47.147Z,14.67
2019-01-09T00:04:17.159Z,10.43
2019-01-09T00:06:47.100Z,15.60
2019-01-09T00:09:17.080Z,13.53
2019-01-09T00:11:47.033Z,9.47
2019-01-09T00:14:16.873Z,12.23
2019-01-09T00:16:47.923Z,13.20
2019-01-09T00:19:19.182Z,12.10
2019-01-09T00:21:50.442Z,12.70
2019-01-09T00:24:20.300Z,16.40
2019-01-09T00:26:50.041Z,10.60
2019-01-09T00:29:19.817Z,15.20
2019-01-09T00:31:49.965Z,11.27
2019-01-09T00:34:19.971Z,15.97
2019-01-09T00:36:49.910Z,16.17
2019-01-09T00:39:19.865Z,12.80
2019-01-09T00:41:49.964Z,16.97
2019-01-09T00:44:19.813Z,16.47
2019-01-09T00:46:51.816Z,15.80
2019-01-09T00:49:21.861Z,17.07
2019-01-09T00:51:51.917Z,14.03
2019-01-09T00:54:21.649Z,14.37
2019-01-09T00:56:51.841Z,16.97
2019-01-09T00:59:21.798Z,18.40
2019-01-09T01:02:02.535Z,20.10
2019-01-09T01:05:04.621Z,18.67
2019-01-09T01:08:19.198Z,19.93
2019-01-09T01:11:30.400Z,18.27
2019-01-09T01:14:49.661Z,16.07
2019-01-09T01:17:55.124Z,17.60
2019-01-09T01:20:48.904Z,17.73
2019-01-09T01:24:03.150Z,13.27
2019-01-09T01:27:12.707Z,20.60
2019-01-09T01:30:42.090Z,23.60
2019-01-09T01:33:26.133Z,26.13
2019-01-09T01:36:49.881Z,19.90
2019-01-09T01:39:48.132Z,20.10
2019-01-09T01:43:06.787Z,21.13
2019-01-09T01:45:58.736Z,20.60
2019-01-09T01:49:21.399Z,16.67
2019-01-09T01:52:26.013Z,18.40
2019-01-09T01:55:38.827Z,24.37
2019-01-09T01:58:52.926Z,16.87
2019-01-09T02:01:38.989Z,19.00
2019-01-09T02:04:39.247Z,14.10
2019-01-09T02:08:08.249Z,16.87
2019-01-09T02:11:15.612Z,14.70
2019-01-09T02:14:26.200Z,16.87
2019-01-09T02:17:38.460Z,17.03
2019-01-09T02:20:43.572Z,14.87
2019-01-09T02:23:59.350Z,12.93
2019-01-09T02:27:06.355Z,8.93
2019-01-09T02:30:07.129Z,27.87
2019-01-09T02:32:39.135Z,13.20
2019-01-09T02:35:10.682Z,16.80
2019-01-09T02:37:42.309Z,12.53
2019-01-09T02:40:12.085Z,17.87
2019-01-09T02:42:41.806Z,19.73
2019-01-09T02:45:11.505Z,20.63
2019-01-09T02:47:41.195Z,15.70
2019-01-09T02:50:11.108Z,17.60
2019-01-09T02:52:40.805Z,12.37
2019-01-09T02:55:10.440Z,11.00
2019-01-09T02:57:40.079Z,13.50
2019-01-09T03:00:12.432Z,12.23
2019-01-09T03:02:42.125Z,11.90
2019-01-09T03:05:13.913Z,18.00
2019-01-09T03:07:43.848Z,13.97
2019-01-09T03:10:13.972Z,13.73
2019-01-09T03:12:43.650Z,12.40
2019-01-09T03:15:13.634Z,11.30
2019-01-09T03:17:43.297Z,18.47
2019-01-09T03:20:12.944Z,11.37
2019-01-09T03:22:42.738Z,10.13
2019-01-09T03:25:12.714Z,13.93
2019-01-09T03:27:42.812Z,13.47
2019-01-09T03:30:12.600Z,15.40
2019-01-09T03:32:42.383Z,12.87
2019-01-09T03:35:12.213Z,15.03
2019-01-09T03:37:41.933Z,12.75
2019-01-09T03:40:11.565Z,13.23
2019-01-09T03:42:41.412Z,14.90
2019-01-09T03:45:11.519Z,12.03
2019-01-09T03:47:41.333Z,14.03
2019-01-09T03:50:11.201Z,13.03
2019-01-09T03:52:41.019Z,12.50
2019-01-09T03:55:11.176Z,10.70
2019-01-09T03:57:40.945Z,14.93
2019-01-09T04:00:10.687Z,11.70
2019-01-09T04:02:40.430Z,12.77
2019-01-09T04:05:10.126Z,18.00
2019-01-09T04:07:39.933Z,13.73
2019-01-09T04:10:09.649Z,19.93
2019-01-09T04:12:39.421Z,16.47
2019-01-09T04:15:09.154Z,16.37
2019-01-09T04:17:38.934Z,13.23
2019-01-09T04:20:09.798Z,11.57
2019-01-09T04:22:39.594Z,13.90
2019-01-09T04:25:09.464Z,13.67
2019-01-09T04:27:39.061Z,8.23
2019-01-09T04:30:09.102Z,14.60
2019-01-09T04:32:38.729Z,11.87
2019-01-09T04:35:08.497Z,10.07
2019-01-09T04:37:38.260Z,10.00
2019-01-09T04:40:08.901Z,11.30
2019-01-09T04:42:38.557Z,8.47
2019-01-09T04:45:08.701Z,10.35
2019-01-09T04:47:38.322Z,9.70
2019-01-09T04:50:08.272Z,10.65
2019-01-09T04:52:38.325Z,10.98
2019-01-09T04:55:08.308Z,9.83
2019-01-09T04:57:38.428Z,10.87
2019-01-09T05:00:08.591Z,5.92
2019-01-09T05:02:38.491Z,7.83
2019-01-09T05:05:08.394Z,7.42
2019-01-09T05:07:39.017Z,8.00
2019-01-09T05:10:09.278Z,9.17
2019-01-09T05:12:39.167Z,4.37
2019-01-09T05:15:09.406Z,2.93
2019-01-09T05:17:39.241Z,4.60
2019-01-09T05:20:09.175Z,5.53
2019-01-09T05:22:39.225Z,4.53
2019-01-09T05:25:09.122Z,6.47
2019-01-09T05:27:40.489Z,5.33
2019-01-09T05:30:10.213Z,6.27
2019-01-09T05:32:42.354Z,5.90
2019-01-09T05:35:12.300Z,9.23
2019-01-09T05:37:42.137Z,4.43
2019-01-09T05:40:12.061Z,5.83
2019-01-09T05:42:42.039Z,7.10
2019-01-09T05:45:12.098Z,9.83
2019-01-09T05:47:42.671Z,8.73
2019-01-09T05:50:13.200Z,9.23
2019-01-09T05:52:43.228Z,10.27
2019-01-09T05:55:13.292Z,9.00
2019-01-09T05:57:43.260Z,14.87
2019-01-09T06:00:13.378Z,12.27
2019-01-09T06:02:43.773Z,6.17
2019-01-09T06:05:13.913Z,5.80
2019-01-09T06:07:43.981Z,13.00
2019-01-09T06:10:14.371Z,10.87
2019-01-09T06:12:44.290Z,13.27
2019-01-09T06:15:14.793Z,12.47
2019-01-09T06:17:45.241Z,9.57
2019-01-09T06:20:15.049Z,3.83
2019-01-09T06:22:45.280Z,2.60
2019-01-09T06:25:15.455Z,6.93
2019-01-09T06:27:46.112Z,4.87
2019-01-09T06:30:16.116Z,2.70
2019-01-09T06:32:46.274Z,2.87
2019-01-09T06:35:16.577Z,3.77
2019-01-09T06:37:46.798Z,3.50
2019-01-09T06:40:16.650Z,2.77
2019-01-09T06:42:48.880Z,3.17
2019-01-09T06:45:18.940Z,7.20
2019-01-09T06:47:49.046Z,2.53
2019-01-09T06:50:20.464Z,1.53
2019-01-09T06:52:50.490Z,4.87
2019-01-09T06:55:20.232Z,2.33
2019-01-09T06:57:50.101Z,2.63
2019-01-09T07:00:19.982Z,4.00
2019-01-09T07:02:50.109Z,1.90
2019-01-09T07:05:19.862Z,3.40
2019-01-09T07:07:49.681Z,4.13
2019-01-09T07:10:19.588Z,5.43
2019-01-09T07:12:49.579Z,3.40
2019-01-09T07:15:19.331Z,5.57
2019-01-09T07:17:49.088Z,4.10
2019-01-09T07:20:19.229Z,7.03
2019-01-09T07:22:49.460Z,9.43
2019-01-09T07:25:19.233Z,14.07
2019-01-09T07:27:53.227Z,22.80
2019-01-09T07:30:22.975Z,23.20
2019-01-09T07:32:52.707Z,22.50
2019-01-09T07:35:22.617Z,20.13
2019-01-09T07:37:52.359Z,23.30
2019-01-09T07:40:22.308Z,23.23
2019-01-09T07:42:52.244Z,25.77
2019-01-09T07:45:22.218Z,22.03
2019-01-09T07:47:52.071Z,21.43
2019-01-09T07:50:21.834Z,23.13
2019-01-09T07:52:51.617Z,25.60
2019-01-09T07:55:21.411Z,26.07
2019-01-09T07:57:51.411Z,23.53
2019-01-09T08:00:21.495Z,24.93
2019-01-09T08:02:51.434Z,24.47
2019-01-09T08:05:21.466Z,21.73
2019-01-09T08:07:54.170Z,25.60
2019-01-09T08:10:22.600Z,12.10
2019-01-09T08:12:52.658Z,19.00
2019-01-09T08:15:22.498Z,17.27
2019-01-09T08:17:52.481Z,17.60
2019-01-09T08:20:22.290Z,17.63
2019-01-09T08:22:52.224Z,14.07
2019-01-09T08:25:22.218Z,16.53
2019-01-09T08:27:52.495Z,11.00
2019-01-09T08:30:22.397Z,16.07
2019-01-09T08:32:52.149Z,13.27
2019-01-09T08:35:21.841Z,19.03
2019-01-09T08:37:52.926Z,16.40
2019-01-09T08:40:22.774Z,12.90
2019-01-09T08:42:52.523Z,16.40
2019-01-09T08:45:22.449Z,17.60
2019-01-09T08:47:54.232Z,20.57
2019-01-09T08:50:24.371Z,26.03
2019-01-09T08:52:54.105Z,19.50
2019-01-09T08:55:23.941Z,16.10
2019-01-09T08:57:53.760Z,24.20
2019-01-09T09:00:23.507Z,12.57
2019-01-09T09:02:53.246Z,15.43
2019-01-09T09:05:28.738Z,19.70
2019-01-09T09:08:15.465Z,17.43
2019-01-09T09:10:55.898Z,23.10
2019-01-09T09:13:53.315Z,18.30
2019-01-09T09:16:23.000Z,17.97
2019-01-09T09:18:52.790Z,16.23
2019-01-09T09:21:22.635Z,15.47
2019-01-09T09:23:53.928Z,13.07
2019-01-09T09:26:23.838Z,12.77
2019-01-09T09:28:53.649Z,18.20
2019-01-09T09:31:23.333Z,19.93
2019-01-09T09:34:07.378Z,12.50
2019-01-09T09:36:50.219Z,18.93
2019-01-09T09:39:33.294Z,15.83
2019-01-09T09:42:03.840Z,13.00
2019-01-09T09:44:33.859Z,10.37
2019-01-09T09:47:04.967Z,17.50
2019-01-09T09:49:35.080Z,15.70
2019-01-09T09:52:05.300Z,16.33
2019-01-09T09:54:35.614Z,14.63
2019-01-09T09:57:06.447Z,18.63
2019-01-09T09:59:36.434Z,12.57
2019-01-09T10:02:06.985Z,13.67
2019-01-09T10:04:37.091Z,14.83
2019-01-09T10:07:06.875Z,13.30
2019-01-09T10:09:36.924Z,16.37
2019-01-09T10:12:06.862Z,14.67
2019-01-09T10:14:37.002Z,18.80
2019-01-09T10:17:08.671Z,15.13
2019-01-09T10:19:40.060Z,15.70
2019-01-09T10:22:10.461Z,10.07
2019-01-09T10:24:40.401Z,12.07
2019-01-09T10:27:10.577Z,11.90
2019-01-09T10:29:40.731Z,10.17
2019-01-09T10:32:10.652Z,8.80
2019-01-09T10:34:40.615Z,13.07
2019-01-09T10:37:10.679Z,12.67
2019-01-09T10:39:40.617Z,10.40
2019-01-09T10:42:10.847Z,15.50
2019-01-09T10:44:40.865Z,12.57
2019-01-09T10:47:11.144Z,12.83
2019-01-09T10:49:41.251Z,14.80
2019-01-09T10:52:11.485Z,15.93
2019-01-09T10:54:41.810Z,14.57
2019-01-09T10:57:11.855Z,16.00
2019-01-09T10:59:42.535Z,11.50
2019-01-09T11:02:12.787Z,11.47
2019-01-09T11:04:43.322Z,10.07
2019-01-09T11:07:13.760Z,17.70
2019-01-09T11:09:43.870Z,14.83
2019-01-09T11:12:14.290Z,9.77
2019-01-09T11:14:44.533Z,9.93
2019-01-09T11:17:14.935Z,9.67
2019-01-09T11:19:44.940Z,18.83
2019-01-09T11:22:15.419Z,11.83
2019-01-09T11:24:45.593Z,11.77
2019-01-09T11:27:15.732Z,13.13
2019-01-09T11:29:45.676Z,12.03
2019-01-09T11:32:15.908Z,13.40
2019-01-09T11:34:45.958Z,11.97
2019-01-09T11:37:16.081Z,14.33
2019-01-09T11:39:50.012Z,8.37
2019-01-09T11:42:20.006Z,11.40
2019-01-09T11:44:50.648Z,13.50
2019-01-09T11:47:20.709Z,10.67
2019-01-09T11:49:50.697Z,13.63
2019-01-09T11:52:21.546Z,9.33
2019-01-09T11:54:51.678Z,9.40
2019-01-09T11:57:22.194Z,9.90
2019-01-09T11:59:52.173Z,8.37
2019-01-09T12:02:22.549Z,9.77
2019-01-09T12:04:52.503Z,7.33
2019-01-09T12:07:22.841Z,6.37
2019-01-09T12:09:52.757Z,9.23
2019-01-09T12:12:23.233Z,7.53
2019-01-09T12:14:54.035Z,4.23
2019-01-09T12:17:24.178Z,4.80
2019-01-09T12:19:54.655Z,6.70
2019-01-09T12:22:24.690Z,5.43
2019-01-09T12:24:54.716Z,7.73
2019-01-09T12:27:24.655Z,7.30
2019-01-09T12:29:54.620Z,4.47
2019-01-09T12:32:24.848Z,4.10
2019-01-09T12:34:54.975Z,4.30
2019-01-09T12:37:25.447Z,7.40
2019-01-09T12:39:55.510Z,4.37
2019-01-09T12:42:25.567Z,9.00
2019-01-09T12:44:55.832Z,4.87
2019-01-09T12:47:26.020Z,5.53
2019-01-09T12:49:56.222Z,4.97
2019-01-09T12:52:26.577Z,9.13
2019-01-09T12:54:56.840Z,6.10
2019-01-09T12:57:27.858Z,5.50
2019-01-09T12:59:58.070Z,6.37
2019-01-09T13:02:28.048Z,7.57
2019-01-09T13:05:00.272Z,5.40
2019-01-09T13:07:30.959Z,4.53
2019-01-09T13:10:01.364Z,5.47
2019-01-09T13:12:31.334Z,3.20
2019-01-09T13:15:01.691Z,5.57
2019-01-09T13:17:32.046Z,4.30
2019-01-09T13:20:01.988Z,8.00
2019-01-09T13:22:32.131Z,6.00
2019-01-09T13:25:02.339Z,8.07
2019-01-09T13:27:32.330Z,6.87
2019-01-09T13:30:02.581Z,3.87
2019-01-09T13:32:32.856Z,6.77
2019-01-09T13:35:02.924Z,2.57
2019-01-09T13:37:33.918Z,5.13
2019-01-09T13:40:04.839Z,4.93
2019-01-09T13:42:34.861Z,3.43
2019-01-09T13:45:06.371Z,5.03
2019-01-09T13:47:36.740Z,8.00
2019-01-09T13:50:07.675Z,4.90
2019-01-09T13:52:38.020Z,4.87
2019-01-09T13:55:19.204Z,2.03
2019-01-09T13:57:49.843Z,5.43
2019-01-09T14:00:23.475Z,3.67
2019-01-09T14:02:53.783Z,4.23
2019-01-09T14:05:23.932Z,6.93
2019-01-09T14:07:54.507Z,6.93
2019-01-09T14:10:26.587Z,4.00
2019-01-09T14:12:56.732Z,3.40
2019-01-09T14:15:26.900Z,3.80
2019-01-09T14:17:57.117Z,9.30
2019-01-09T14:20:27.079Z,5.27
2019-01-09T14:22:57.408Z,4.00
2019-01-09T14:25:27.724Z,2.93
2019-01-09T14:27:57.992Z,6.77
2019-01-09T14:30:29.860Z,6.30
2019-01-09T14:33:00.165Z,7.07
2019-01-09T14:35:30.370Z,2.27
2019-01-09T14:38:00.629Z,7.67
2019-01-09T14:40:30.555Z,7.20
2019-01-09T14:43:01.097Z,8.70
2019-01-09T14:45:31.460Z,4.57
2019-01-09T14:48:01.927Z,5.43
2019-01-09T14:50:32.339Z,7.47
2019-01-09T14:53:03.097Z,6.87
2019-01-09T14:55:33.761Z,3.00
2019-01-09T14:58:04.030Z,4.87
2019-01-09T15:00:34.312Z,4.97
2019-01-09T15:03:04.417Z,7.57
2019-01-09T15:05:34.695Z,4.60
2019-01-09T15:08:04.835Z,4.63
2019-01-09T15:10:35.305Z,2.23
2019-01-09T15:13:05.854Z,2.83
2019-01-09T15:15:35.941Z,4.50
2019-01-09T15:18:06.256Z,7.80
2019-01-09T15:20:36.537Z,5.50
2019-01-09T15:23:06.965Z,5.07
2019-01-09T15:25:37.537Z,7.93
2019-01-09T15:28:07.784Z,7.00
2019-01-09T15:30:38.822Z,7.10
2019-01-09T15:33:09.503Z,5.97
2019-01-09T15:35:40.258Z,6.13
2019-01-09T15:38:10.809Z,8.37
2019-01-09T15:40:42.026Z,4.77
2019-01-09T15:43:12.657Z,6.87
2019-01-09T15:45:43.024Z,6.37
2019-01-09T15:48:13.671Z,6.87
2019-01-09T15:50:44.531Z,5.27
2019-01-09T15:53:15.196Z,9.03
2019-01-09T15:55:45.673Z,7.17
2019-01-09T15:58:16.084Z,3.43
2019-01-09T16:00:49.381Z,4.33
2019-01-09T16:03:19.986Z,3.70
2019-01-09T16:05:50.922Z,2.50
2019-01-09T16:08:21.416Z,6.30
2019-01-09T16:10:51.891Z,2.73
2019-01-09T16:13:22.980Z,4.67
2019-01-09T16:15:53.552Z,5.67
2019-01-09T16:18:24.184Z,4.27
2019-01-09T16:20:54.640Z,4.70
2019-01-09T16:23:24.818Z,4.80
2019-01-09T16:25:55.350Z,6.33
2019-01-09T16:28:25.880Z,3.87
2019-01-09T16:31:09.350Z,7.43
2019-01-09T16:33:39.741Z,3.97
2019-01-09T16:36:10.269Z,4.17
2019-01-09T16:38:40.999Z,3.90
2019-01-09T16:41:11.521Z,13.20
2019-01-09T16:43:41.902Z,5.13
2019-01-09T16:46:12.637Z,9.63
2019-01-09T16:48:43.142Z,8.87
2019-01-09T16:51:14.117Z,4.00
2019-01-09T16:53:44.584Z,5.77
2019-01-09T16:56:16.523Z,7.50
2019-01-09T16:58:47.171Z,8.13
2019-01-09T17:01:18.086Z,6.50
2019-01-09T17:03:48.724Z,7.27
2019-01-09T17:06:21.166Z,2.73
2019-01-09T17:08:51.613Z,6.63
2019-01-09T17:11:22.320Z,4.73
2019-01-09T17:13:53.161Z,7.63
2019-01-09T17:16:23.553Z,7.27
2019-01-09T17:18:54.179Z,8.23
2019-01-09T17:21:25.240Z,9.83
2019-01-09T17:23:56.022Z,8.03
2019-01-09T17:26:26.905Z,5.93
2019-01-09T17:28:58.030Z,10.13
2019-01-09T17:31:28.827Z,7.67
2019-01-09T17:34:04.547Z,8.27
2019-01-09T17:36:35.208Z,7.37
2019-01-09T17:39:08.178Z,9.13
2019-01-09T17:41:39.137Z,6.17
2019-01-09T17:44:11.224Z,10.13
2019-01-09T17:46:54.896Z,7.73
2019-01-09T17:49:25.344Z,5.53
2019-01-09T17:51:56.100Z,6.17
2019-01-09T17:54:26.538Z,7.40
2019-01-09T17:56:57.513Z,9.43
2019-01-09T17:59:27.974Z,10.63
2019-01-09T18:01:58.803Z,8.53
2019-01-09T18:04:29.222Z,4.50
2019-01-09T18:06:59.885Z,12.57
2019-01-09T18:09:30.401Z,6.67
2019-01-09T18:12:01.477Z,8.43
2019-01-09T18:14:31.823Z,7.03
2019-01-09T18:17:02.821Z,7.80
2019-01-09T18:19:35.161Z,7.60
2019-01-09T18:22:05.975Z,11.20
2019-01-09T18:24:36.507Z,9.50
2019-01-09T18:27:07.386Z,9.90
2019-01-09T18:29:37.913Z,10.17
2019-01-09T18:32:24.132Z,13.00
2019-01-09T18:35:23.955Z,8.00
2019-01-09T18:38:21.928Z,9.27
2019-01-09T18:41:21.689Z,10.20
2019-01-09T18:44:24.579Z,6.53
2019-01-09T18:47:36.262Z,8.57
2019-01-09T18:50:56.622Z,7.53
2019-01-09T18:53:47.913Z,6.63
2019-01-09T18:56:19.948Z,7.77
2019-01-09T18:58:50.522Z,7.47
2019-01-09T19:01:21.374Z,7.40
2019-01-09T19:03:52.102Z,6.60
2019-01-09T19:06:22.693Z,5.07
2019-01-09T19:08:53.298Z,9.90
2019-01-09T19:11:23.818Z,6.20
2019-01-09T19:13:54.499Z,3.87
2019-01-09T19:16:24.837Z,10.10
2019-01-09T19:18:56.615Z,9.00
2019-01-09T19:21:29.633Z,4.37
2019-01-09T19:24:00.308Z,5.63
2019-01-09T19:26:30.727Z,12.83
2019-01-09T19:29:01.145Z,7.37
2019-01-09T19:31:31.709Z,7.07
2019-01-09T19:34:02.388Z,6.83
2019-01-09T19:36:33.055Z,6.10
2019-01-09T19:39:04.169Z,5.93
2019-01-09T19:41:34.601Z,5.90
2019-01-09T19:44:05.131Z,13.10
2019-01-09T19:46:35.429Z,7.13
2019-01-09T19:49:06.245Z,4.43
2019-01-09T19:51:36.743Z,4.73
2019-01-09T19:54:07.481Z,10.30
2019-01-09T19:56:37.886Z,6.17
2019-01-09T19:59:08.465Z,7.77
2019-01-09T20:01:42.861Z,8.50
2019-01-09T20:04:13.412Z,12.07
2019-01-09T20:06:45.583Z,7.03
2019-01-09T20:09:16.106Z,7.87
2019-01-09T20:11:46.411Z,5.00
2019-01-09T20:14:20.121Z,2.83
2019-01-09T20:16:50.463Z,11.33
2019-01-09T20:19:21.018Z,9.77
2019-01-09T20:21:51.914Z,5.03
2019-01-09T20:24:23.012Z,5.73
2019-01-09T20:26:56.071Z,6.53
2019-01-09T20:29:26.796Z,6.10
2019-01-09T20:31:57.472Z,6.13
2019-01-09T20:34:28.638Z,6.10
2019-01-09T20:36:59.119Z,10.80
2019-01-09T20:39:29.684Z,6.50
2019-01-09T20:42:02.101Z,9.00
2019-01-09T20:44:32.603Z,7.40
2019-01-09T20:47:03.533Z,6.67
2019-01-09T20:49:33.957Z,5.80
2019-01-09T20:52:05.321Z,8.40
2019-01-09T20:54:35.722Z,5.47
2019-01-09T20:57:08.200Z,7.77
2019-01-09T20:59:38.742Z,8.93
2019-01-09T21:02:08.992Z,12.00
2019-01-09T21:04:39.575Z,5.33
2019-01-09T21:07:10.541Z,14.47
2019-01-09T21:09:41.282Z,4.87
2019-01-09T21:12:11.664Z,2.80
2019-01-09T21:14:42.228Z,7.10
2019-01-09T21:17:14.057Z,5.03
2019-01-09T21:19:44.616Z,4.63
2019-01-09T21:22:15.082Z,6.00
2019-01-09T21:24:47.120Z,5.10
2019-01-09T21:27:17.643Z,10.70
2019-01-09T21:29:47.992Z,8.17
2019-01-09T21:32:18.547Z,8.73
2019-01-09T21:34:49.083Z,5.80
2019-01-09T21:37:32.433Z,9.40
2019-01-09T21:40:02.836Z,8.23
2019-01-09T21:42:33.658Z,8.13
2019-01-09T21:45:03.986Z,10.80
2019-01-09T21:47:34.793Z,8.47
2019-01-09T21:50:06.266Z,4.67
2019-01-09T21:52:36.749Z,4.40
2019-01-09T21:55:07.550Z,12.50
2019-01-09T21:57:38.002Z,8.10
2019-01-09T22:00:12.432Z,6.70
2019-01-09T22:02:42.863Z,6.53
2019-01-09T22:05:13.473Z,5.33
2019-01-09T22:07:43.965Z,3.93
2019-01-09T22:10:21.195Z,4.60
2019-01-09T22:12:51.570Z,4.40
2019-01-09T22:15:22.269Z,7.50
2019-01-09T22:17:52.953Z,7.63
2019-01-09T22:20:23.653Z,7.37
2019-01-09T22:22:54.316Z,6.13
2019-01-09T22:25:24.537Z,6.67
2019-01-09T22:27:55.151Z,9.17
2019-01-09T22:30:27.058Z,6.43
2019-01-09T22:32:57.274Z,8.03
2019-01-09T22:35:27.313Z,6.87
2019-01-09T22:37:57.518Z,5.80
2019-01-09T22:40:27.375Z,8.63
2019-01-09T22:42:57.853Z,8.70
2019-01-09T22:45:27.673Z,6.47
2019-01-09T22:47:57.430Z,5.77
2019-01-09T22:50:29.113Z,6.97
2019-01-09T22:52:59.013Z,7.77
2019-01-09T22:55:29.065Z,7.80
2019-01-09T22:57:58.854Z,8.23
2019-01-09T23:00:50.769Z,8.53
2019-01-09T23:03:20.959Z,11.40
2019-01-09T23:05:52.617Z,11.17
2019-01-09T23:08:22.885Z,7.60
2019-01-09T23:10:57.254Z,7.30
2019-01-09T23:13:26.527Z,6.47
2019-01-09T23:15:56.655Z,3.90
2019-01-09T23:18:26.617Z,6.40
2019-01-09T23:20:56.504Z,6.03
2019-01-09T23:23:26.397Z,5.20
2019-01-09T23:25:57.619Z,7.63
2019-01-09T23:28:30.124Z,7.97
2019-01-09T23:30:59.941Z,7.63
2019-01-09T23:33:29.969Z,11.53
2019-01-09T23:36:00.321Z,11.33
2019-01-09T23:38:30.257Z,6.77
2019-01-09T23:41:00.408Z,6.53
2019-01-09T23:43:30.240Z,8.73
2019-01-09T23:46:00.362Z,15.33
2019-01-09T23:48:31.681Z,8.23
2019-01-09T23:51:01.871Z,7.57
2019-01-09T23:53:31.957Z,7.33
2019-01-09T23:56:01.929Z,9.77
2019-01-09T23:58:32.139Z,11.23
